createdAt,value
2018-06-23T17:30:05.200Z,3.90
2018-06-23T17:32:34.842Z,4.37
2018-06-23T17:35:04.677Z,4.30
2018-06-23T17:37:33.289Z,4.47
2018-06-23T17:40:03.201Z,4.23
2018-06-23T17:42:32.821Z,5.27
2018-06-23T17:45:04.422Z,4.73
2018-06-23T17:47:35.214Z,4.63
2018-06-23T17:50:05.304Z,4.30
2018-06-23T17:52:34.193Z,4.47
2018-06-23T17:55:02.895Z,5.07
2018-06-23T17:57:32.812Z,4.57
2018-06-23T18:00:01.566Z,5.60
2018-06-23T18:02:33.979Z,5.23
2018-06-23T18:05:03.202Z,4.43
2018-06-23T18:07:35.456Z,5.47
2018-06-23T18:10:07.029Z,4.37
2018-06-23T18:12:37.977Z,4.13
2018-06-23T18:15:07.709Z,4.50
2018-06-23T18:17:40.167Z,4.50
2018-06-23T18:20:09.919Z,4.30
2018-06-23T18:22:43.361Z,4.37
2018-06-23T18:25:12.876Z,4.90
2018-06-23T18:27:47.463Z,4.67
2018-06-23T18:30:17.257Z,4.90
2018-06-23T18:32:46.709Z,5.13
2018-06-23T18:35:15.968Z,5.17
2018-06-23T18:37:58.400Z,5.60
2018-06-23T18:40:28.175Z,4.83
2018-06-23T18:42:57.809Z,5.00
2018-06-23T18:45:26.017Z,4.73
2018-06-23T18:47:56.549Z,4.83
2018-06-23T18:50:26.364Z,4.73
2018-06-23T18:52:54.906Z,5.67
2018-06-23T18:55:25.591Z,4.80
2018-06-23T18:58:01.518Z,5.77
2018-06-23T19:00:30.978Z,5.37
2018-06-23T19:03:01.614Z,5.37
2018-06-23T19:05:30.532Z,5.70
2018-06-23T19:08:02.402Z,6.40
2018-06-23T19:10:31.553Z,5.33
2018-06-23T19:13:13.587Z,5.50
2018-06-23T19:15:42.880Z,5.23
2018-06-23T19:18:12.264Z,5.23
2018-06-23T19:20:42.210Z,5.50
2018-06-23T19:23:13.312Z,5.70
2018-06-23T19:25:45.009Z,5.53
2018-06-23T19:28:20.329Z,5.40
2018-06-23T19:30:55.925Z,5.20
2018-06-23T19:33:26.912Z,5.97
2018-06-23T19:35:56.713Z,10.10
2018-06-23T19:38:32.390Z,7.70
2018-06-23T19:41:03.172Z,6.33
2018-06-23T19:43:32.605Z,6.70
2018-06-23T19:46:03.110Z,6.50
2018-06-23T19:48:32.954Z,7.03
2018-06-23T19:51:03.333Z,7.97
2018-06-23T19:53:32.058Z,6.80
2018-06-23T19:56:02.445Z,6.00
2018-06-23T19:58:37.653Z,6.90
2018-06-23T20:01:06.768Z,7.17
2018-06-23T20:03:40.648Z,7.53
2018-06-23T20:06:10.713Z,8.80
2018-06-23T20:08:42.879Z,10.03
2018-06-23T20:11:14.596Z,9.00
2018-06-23T20:13:43.790Z,7.30
2018-06-23T20:16:14.308Z,7.07
2018-06-23T20:18:43.738Z,8.40
2018-06-23T20:21:17.923Z,6.97
2018-06-23T20:23:48.324Z,8.10
2018-06-23T20:26:17.170Z,8.50
2018-06-23T20:28:47.169Z,7.87
2018-06-23T20:31:17.152Z,8.13
2018-06-23T20:33:50.421Z,8.83
2018-06-23T20:36:25.324Z,11.03
2018-06-23T20:39:05.086Z,8.47
2018-06-23T20:41:41.229Z,11.03
2018-06-23T20:44:14.773Z,9.97
2018-06-23T20:46:45.295Z,9.57
2018-06-23T20:49:15.762Z,10.20
2018-06-23T20:51:48.400Z,11.37
2018-06-23T20:54:19.348Z,11.77
2018-06-23T20:56:49.089Z,11.10
2018-06-23T20:59:17.711Z,9.30
2018-06-23T21:01:50.443Z,9.10
2018-06-23T21:04:19.371Z,8.33
2018-06-23T21:06:53.123Z,8.87
2018-06-23T21:09:24.012Z,8.80
2018-06-23T21:11:56.605Z,9.90
2018-06-23T21:14:25.645Z,10.87
2018-06-23T21:17:00.413Z,9.13
2018-06-23T21:19:29.221Z,9.57
2018-06-23T21:22:00.535Z,8.93
2018-06-23T21:24:30.734Z,9.53
2018-06-23T21:27:02.837Z,8.40
2018-06-23T21:29:31.480Z,8.20
2018-06-23T21:32:14.437Z,8.30
2018-06-23T21:34:44.315Z,8.87
2018-06-23T21:37:13.170Z,8.33
2018-06-23T21:39:42.191Z,8.07
2018-06-23T21:42:14.644Z,8.23
2018-06-23T21:44:46.303Z,7.97
2018-06-23T21:47:16.241Z,7.80
2018-06-23T21:49:46.457Z,7.80
2018-06-23T21:52:16.740Z,7.90
2018-06-23T21:54:46.551Z,7.83
2018-06-23T21:57:16.963Z,8.93
2018-06-23T21:59:45.615Z,8.50
2018-06-23T22:02:23.251Z,9.10
2018-06-23T22:04:53.152Z,8.47
2018-06-23T22:07:22.770Z,8.77
2018-06-23T22:12:30.578Z,8.87
2018-06-23T22:14:59.143Z,9.20
2018-06-23T22:17:30.277Z,9.63
2018-06-23T22:20:00.645Z,9.20
2018-06-23T22:22:30.648Z,10.13
2018-06-23T22:24:59.518Z,9.87
2018-06-23T22:27:29.217Z,9.43
2018-06-23T22:29:58.485Z,9.57
2018-06-23T22:32:30.570Z,10.40
2018-06-23T22:34:59.651Z,8.80
2018-06-23T22:37:34.690Z,9.13
2018-06-23T22:40:04.622Z,9.07
2018-06-23T22:42:34.194Z,9.40
2018-06-23T22:45:04.450Z,9.50
2018-06-23T22:47:36.437Z,9.87
2018-06-23T22:50:07.361Z,9.70
2018-06-23T22:52:38.692Z,9.00
2018-06-23T22:55:09.233Z,9.13
2018-06-23T22:57:40.494Z,8.97
2018-06-23T23:00:13.317Z,9.00
2018-06-23T23:02:43.130Z,10.10
2018-06-23T23:05:12.088Z,9.30
2018-06-23T23:07:44.997Z,9.97
2018-06-23T23:10:14.061Z,8.97
2018-06-23T23:12:46.999Z,8.73
2018-06-23T23:15:16.111Z,9.00
2018-06-23T23:17:49.278Z,8.23
2018-06-23T23:20:18.442Z,9.73
2018-06-23T23:23:01.058Z,8.00
2018-06-23T23:25:30.391Z,7.60
2018-06-23T23:28:00.679Z,7.00
2018-06-23T23:30:29.649Z,7.10
2018-06-23T23:32:59.795Z,7.63
2018-06-23T23:35:30.294Z,7.97
2018-06-23T23:37:59.594Z,7.80
2018-06-23T23:40:28.668Z,7.13
2018-06-23T23:43:00.933Z,7.70
2018-06-23T23:45:29.808Z,7.70
2018-06-23T23:48:11.063Z,7.13
2018-06-23T23:50:41.215Z,7.90
2018-06-23T23:53:10.380Z,7.77
2018-06-23T23:55:39.010Z,7.30
2018-06-23T23:58:07.672Z,7.67
